createdAt,value
2018-05-17T00:00:40.111Z,8.23
2018-05-17T00:03:09.142Z,6.37
2018-05-17T00:05:42.005Z,6.50
2018-05-17T00:08:10.790Z,6.20
2018-05-17T00:10:43.635Z,5.70
2018-05-17T00:13:12.424Z,5.47
2018-05-17T00:15:48.982Z,5.63
2018-05-17T00:18:17.993Z,5.27
2018-05-17T00:20:50.166Z,5.40
2018-05-17T00:23:18.878Z,4.70
2018-05-17T00:25:52.408Z,5.10
2018-05-17T00:28:21.949Z,4.43
2018-05-17T00:30:58.813Z,5.77
2018-05-17T00:33:27.796Z,5.07
2018-05-17T00:35:58.010Z,4.83
2018-05-17T00:38:27.526Z,4.00
2018-05-17T00:41:00.626Z,4.33
2018-05-17T00:43:29.322Z,5.03
2018-05-17T00:46:05.358Z,5.50
2018-05-17T00:48:34.301Z,5.33
2018-05-17T00:51:06.985Z,5.00
2018-05-17T00:53:35.730Z,5.20
2018-05-17T00:56:09.598Z,5.53
2018-05-17T00:58:39.093Z,5.63
2018-05-17T01:01:12.044Z,5.53
2018-05-17T01:03:40.763Z,5.10
2018-05-17T01:06:17.225Z,5.53
2018-05-17T01:08:45.984Z,5.17
2018-05-17T01:11:16.352Z,5.27
2018-05-17T01:13:45.831Z,5.87
2018-05-17T01:16:18.626Z,5.87
2018-05-17T01:18:48.135Z,5.40
2018-05-17T01:21:24.692Z,5.80
2018-05-17T01:23:53.644Z,6.00
2018-05-17T01:26:25.469Z,5.50
2018-05-17T01:28:54.974Z,5.57
2018-05-17T01:31:28.017Z,4.07
2018-05-17T01:33:56.948Z,5.07
2018-05-17T01:36:29.154Z,4.27
2018-05-17T01:38:57.945Z,4.00
2018-05-17T01:41:33.828Z,3.63
2018-05-17T01:44:02.844Z,3.93
2018-05-17T01:46:33.635Z,3.90
2018-05-17T01:49:02.402Z,3.93
2018-05-17T01:51:34.251Z,4.70
2018-05-17T01:54:03.015Z,3.77
2018-05-17T01:56:36.168Z,4.30
2018-05-17T01:59:05.302Z,4.97
2018-05-17T02:01:41.996Z,3.63
2018-05-17T02:04:11.246Z,4.13
2018-05-17T02:06:41.003Z,4.73
2018-05-17T02:09:09.801Z,4.57
2018-05-17T02:11:45.925Z,4.67
2018-05-17T02:14:15.805Z,4.73
2018-05-17T02:16:46.687Z,5.53
2018-05-17T02:19:17.044Z,5.00
2018-05-17T02:21:54.255Z,4.70
2018-05-17T02:24:22.971Z,3.93
2018-05-17T02:26:52.933Z,4.50
2018-05-17T02:29:21.745Z,4.17
2018-05-17T02:31:56.150Z,3.77
2018-05-17T02:34:25.808Z,3.90
2018-05-17T02:36:58.604Z,4.23
2018-05-17T02:39:28.609Z,3.87
2018-05-17T02:42:01.119Z,3.57
2018-05-17T02:44:29.879Z,2.90
2018-05-17T02:47:06.006Z,3.47
2018-05-17T02:49:35.441Z,3.27
2018-05-17T02:52:07.616Z,3.37
2018-05-17T02:54:36.342Z,3.60
2018-05-17T02:57:10.043Z,2.03
2018-05-17T02:59:39.027Z,3.13
2018-05-17T03:02:15.369Z,3.07
2018-05-17T03:04:44.130Z,2.93
2018-05-17T03:07:16.072Z,2.67
2018-05-17T03:09:45.561Z,3.77
2018-05-17T03:12:18.164Z,2.73
2018-05-17T03:14:47.949Z,2.63
2018-05-17T03:17:20.629Z,3.10
2018-05-17T03:19:49.569Z,3.10
2018-05-17T03:22:25.830Z,3.10
2018-05-17T03:24:54.586Z,2.90
2018-05-17T03:27:24.425Z,3.30
2018-05-17T03:29:54.111Z,3.70
2018-05-17T03:32:26.982Z,3.40
2018-05-17T03:34:55.716Z,3.90
2018-05-17T03:37:28.450Z,3.23
2018-05-17T03:39:58.434Z,3.70
2018-05-17T03:42:34.689Z,3.37
2018-05-17T03:45:03.436Z,3.27
2018-05-17T03:47:32.937Z,3.17
2018-05-17T03:50:02.449Z,3.60
2018-05-17T03:52:35.280Z,2.93
2018-05-17T03:55:04.380Z,3.40
2018-05-17T03:57:40.170Z,3.40
2018-05-17T04:00:09.040Z,3.23
2018-05-17T04:06:00.562Z,3.43
2018-05-17T04:08:29.261Z,2.83
2018-05-17T04:10:58.750Z,4.50
2018-05-17T04:13:27.796Z,3.73
2018-05-17T04:15:56.536Z,3.90
2018-05-17T04:18:25.248Z,3.33
2018-05-17T04:20:54.387Z,4.20
2018-05-17T04:23:23.179Z,3.10
2018-05-17T04:25:51.927Z,3.60
2018-05-17T04:28:22.069Z,2.87
2018-05-17T04:30:53.962Z,3.73
2018-05-17T04:33:22.814Z,4.33
2018-05-17T04:35:59.539Z,2.97
2018-05-17T04:38:28.274Z,3.47
2018-05-17T04:41:00.246Z,3.70
2018-05-17T04:43:29.025Z,3.67
2018-05-17T04:46:06.002Z,2.83
2018-05-17T04:48:34.801Z,3.27
2018-05-17T04:51:05.552Z,2.63
2018-05-17T04:53:34.551Z,3.37
2018-05-17T04:56:10.639Z,2.93
2018-05-17T04:58:40.129Z,3.60
2018-05-17T05:01:11.388Z,3.27
2018-05-17T05:03:40.948Z,3.27
2018-05-17T05:06:13.783Z,2.73
2018-05-17T05:08:42.809Z,3.20
2018-05-17T05:11:15.454Z,3.53
2018-05-17T05:13:44.945Z,3.20
2018-05-17T05:16:17.940Z,3.60
2018-05-17T05:18:47.425Z,2.90
2018-05-17T05:21:20.210Z,3.23
2018-05-17T05:23:50.066Z,3.60
2018-05-17T05:26:22.661Z,3.80
2018-05-17T05:28:51.489Z,3.90
2018-05-17T05:31:24.698Z,4.43
2018-05-17T05:33:54.202Z,3.40
2018-05-17T05:36:27.067Z,2.90
2018-05-17T05:38:56.972Z,3.77
2018-05-17T05:41:29.730Z,3.67
2018-05-17T05:43:58.549Z,4.10
2018-05-17T05:46:35.480Z,3.20
2018-05-17T05:49:04.353Z,2.93
2018-05-17T05:51:33.160Z,4.40
2018-05-17T05:54:02.699Z,3.40
2018-05-17T05:56:35.841Z,3.93
2018-05-17T05:59:04.649Z,3.33
2018-05-17T06:01:40.758Z,3.03
2018-05-17T06:04:10.350Z,4.93
2018-05-17T06:06:39.966Z,3.67
2018-05-17T06:09:09.882Z,3.90
2018-05-17T06:11:45.866Z,3.80
2018-05-17T06:14:14.647Z,3.47
2018-05-17T06:16:45.180Z,3.40
2018-05-17T06:19:13.948Z,4.13
2018-05-17T06:21:50.320Z,3.70
2018-05-17T06:24:19.061Z,3.73
2018-05-17T06:26:50.099Z,4.10
2018-05-17T06:29:19.255Z,3.73
2018-05-17T06:31:57.444Z,3.60
2018-05-17T06:34:27.987Z,3.37
2018-05-17T06:36:56.873Z,3.83
2018-05-17T06:39:25.685Z,3.77
2018-05-17T06:41:58.181Z,4.00
2018-05-17T06:44:27.303Z,3.80
2018-05-17T06:47:01.066Z,3.87
2018-05-17T06:49:29.868Z,4.00
2018-05-17T06:52:06.410Z,4.07
2018-05-17T06:54:35.426Z,3.80
2018-05-17T06:57:06.203Z,4.53
2018-05-17T06:59:35.071Z,4.10
2018-05-17T07:02:11.670Z,4.20
2018-05-17T07:04:41.239Z,4.67
2018-05-17T07:07:13.866Z,4.23
2018-05-17T07:09:42.973Z,4.40
2018-05-17T07:12:15.192Z,4.63
2018-05-17T07:14:43.961Z,4.20
2018-05-17T07:17:20.095Z,4.50
2018-05-17T07:19:48.867Z,2.83
2018-05-17T07:22:18.361Z,3.20
2018-05-17T07:24:47.145Z,3.73
2018-05-17T07:27:21.221Z,4.10
2018-05-17T07:29:50.327Z,3.83
2018-05-17T07:32:23.162Z,3.77
2018-05-17T07:34:51.921Z,4.67
2018-05-17T07:37:28.783Z,4.10
2018-05-17T07:39:58.469Z,5.47
2018-05-17T07:43:57.807Z,3.63
2018-05-17T07:46:30.131Z,3.93
2018-05-17T07:48:58.910Z,3.73
2018-05-17T07:51:35.567Z,5.10
2018-05-17T07:54:04.406Z,3.67
2018-05-17T07:56:36.233Z,4.37
2018-05-17T07:59:06.364Z,4.00
2018-05-17T08:01:38.623Z,4.10
2018-05-17T08:04:07.455Z,3.80
2018-05-17T08:06:39.713Z,3.50
2018-05-17T08:09:09.294Z,4.17
2018-05-17T08:11:41.656Z,4.10
2018-05-17T08:14:11.730Z,4.10
2018-05-17T08:16:48.302Z,3.97
2018-05-17T08:19:17.108Z,4.43
2018-05-17T08:21:46.950Z,3.57
2018-05-17T08:24:15.750Z,3.90
2018-05-17T08:26:52.505Z,3.90
2018-05-17T08:29:21.578Z,4.80
2018-05-17T08:31:52.150Z,4.27
2018-05-17T08:34:20.960Z,3.97
2018-05-17T08:36:57.929Z,4.43
2018-05-17T08:39:26.785Z,4.47
2018-05-17T08:41:56.048Z,4.57
2018-05-17T08:44:25.263Z,4.23
2018-05-17T08:47:01.721Z,4.37
2018-05-17T08:49:30.476Z,3.63
2018-05-17T08:52:03.345Z,4.77
2018-05-17T08:54:33.204Z,3.60
2018-05-17T08:57:05.454Z,4.20
2018-05-17T08:59:34.633Z,4.73
2018-05-17T09:02:07.950Z,3.97
2018-05-17T09:04:36.796Z,3.70
2018-05-17T09:07:14.348Z,5.20
2018-05-17T09:09:43.226Z,4.40
2018-05-17T09:12:13.952Z,4.03
2018-05-17T09:14:43.075Z,4.40
2018-05-17T09:17:19.282Z,4.00
2018-05-17T09:19:48.861Z,3.17
2018-05-17T09:22:18.244Z,3.57
2018-05-17T09:24:47.112Z,3.60
2018-05-17T09:27:23.580Z,4.07
2018-05-17T09:29:52.672Z,3.70
2018-05-17T09:32:22.017Z,3.90
2018-05-17T09:34:50.820Z,5.40
2018-05-17T09:37:27.411Z,5.07
2018-05-17T09:39:57.081Z,4.43
2018-05-17T09:42:26.553Z,4.10
2018-05-17T09:44:55.384Z,3.80
2018-05-17T09:47:31.498Z,3.73
2018-05-17T09:50:00.296Z,3.97
2018-05-17T09:52:30.995Z,4.47
2018-05-17T09:54:59.973Z,4.00
2018-05-17T09:57:36.657Z,3.97
2018-05-17T10:00:05.916Z,3.60
2018-05-17T10:02:35.948Z,4.10
2018-05-17T10:05:05.872Z,4.97
2018-05-17T10:07:39.121Z,4.40
2018-05-17T10:10:08.009Z,3.50
2018-05-17T10:12:44.256Z,4.00
2018-05-17T10:15:13.278Z,4.20
2018-05-17T10:17:45.633Z,4.30
2018-05-17T10:20:14.497Z,3.67
2018-05-17T10:22:46.665Z,3.97
2018-05-17T10:25:15.473Z,4.50
2018-05-17T10:27:52.120Z,2.80
2018-05-17T10:32:53.738Z,4.20
2018-05-17T10:35:23.150Z,4.33
2018-05-17T10:37:56.421Z,4.13
2018-05-17T10:40:26.012Z,4.37
2018-05-17T10:42:55.599Z,4.73
2018-05-17T10:45:24.405Z,4.10
2018-05-17T10:48:01.059Z,4.37
2018-05-17T10:50:30.136Z,5.00
2018-05-17T10:53:02.671Z,5.03
2018-05-17T10:55:31.484Z,4.33
2018-05-17T10:58:03.785Z,4.40
2018-05-17T11:00:32.563Z,4.23
2018-05-17T11:03:06.380Z,4.53
2018-05-17T11:05:36.321Z,4.50
2018-05-17T11:08:12.378Z,3.80
2018-05-17T11:10:41.396Z,3.97
2018-05-17T11:13:13.932Z,4.33
2018-05-17T11:15:42.737Z,4.33
2018-05-17T11:18:15.057Z,4.20
2018-05-17T11:20:44.656Z,3.80
2018-05-17T11:23:17.323Z,4.87
2018-05-17T11:25:47.254Z,3.63
2018-05-17T11:28:20.060Z,3.70
2018-05-17T11:30:49.715Z,4.60
2018-05-17T11:33:22.663Z,4.50
2018-05-17T11:38:14.325Z,4.50
2018-05-17T11:40:43.458Z,4.47
2018-05-17T11:43:13.296Z,4.27
2018-05-17T11:45:42.376Z,5.70
2018-05-17T11:48:12.249Z,3.73
2018-05-17T11:50:41.392Z,3.83
2018-05-17T11:53:10.990Z,4.03
2018-05-17T11:55:40.438Z,4.53
2018-05-17T11:58:09.406Z,4.17
2018-05-17T12:00:38.393Z,4.03
2018-05-17T12:03:07.479Z,4.13
2018-05-17T12:05:36.733Z,4.10
2018-05-17T12:08:05.638Z,3.77
2018-05-17T12:10:38.697Z,4.27
2018-05-17T12:13:07.599Z,5.50
2018-05-17T12:15:43.865Z,4.00
2018-05-17T12:18:12.980Z,3.70
2018-05-17T12:20:45.363Z,4.57
2018-05-17T12:23:14.227Z,4.13
2018-05-17T12:25:47.496Z,3.60
2018-05-17T12:28:16.408Z,3.60
2018-05-17T12:30:53.432Z,3.63
2018-05-17T12:33:22.290Z,3.20
2018-05-17T12:35:53.031Z,5.23
2018-05-17T12:38:22.903Z,4.20
2018-05-17T12:40:58.816Z,4.00
2018-05-17T12:43:28.405Z,3.63
2018-05-17T12:45:58.221Z,3.53
2018-05-17T12:48:27.139Z,3.60
2018-05-17T12:51:04.358Z,4.30
2018-05-17T12:53:33.609Z,4.03
2018-05-17T12:56:04.423Z,4.40
2018-05-17T12:58:33.502Z,4.53
2018-05-17T13:01:07.443Z,5.43
2018-05-17T13:03:36.290Z,4.07
2018-05-17T13:06:13.239Z,4.20
2018-05-17T13:08:42.315Z,4.40
2018-05-17T13:11:12.923Z,4.03
2018-05-17T13:13:41.779Z,4.47
2018-05-17T13:16:19.485Z,4.40
2018-05-17T13:18:49.049Z,3.77
2018-05-17T13:21:17.879Z,4.10
2018-05-17T13:23:47.061Z,3.97
2018-05-17T13:26:19.860Z,3.87
2018-05-17T13:28:49.484Z,4.03
2018-05-17T13:31:22.079Z,2.93
2018-05-17T13:33:50.907Z,3.80
2018-05-17T13:36:27.006Z,3.67
2018-05-17T13:38:56.049Z,4.73
2018-05-17T13:41:26.528Z,4.10
2018-05-17T13:43:56.206Z,4.10
2018-05-17T13:46:32.263Z,3.10
2018-05-17T13:49:01.233Z,3.60
2018-05-17T13:51:31.933Z,4.20
2018-05-17T13:54:01.061Z,4.20
2018-05-17T13:56:33.208Z,5.13
2018-05-17T13:59:02.065Z,3.30
2018-05-17T14:01:38.864Z,3.40
2018-05-17T14:04:07.751Z,4.43
2018-05-17T14:06:38.514Z,3.53
2018-05-17T14:09:07.998Z,2.23
2018-05-17T14:15:12.327Z,3.47
2018-05-17T14:17:44.556Z,3.10
2018-05-17T14:20:13.530Z,2.83
2018-05-17T14:22:50.151Z,2.83
2018-05-17T14:25:19.764Z,3.57
2018-05-17T14:27:49.457Z,2.87
2018-05-17T14:30:19.157Z,3.00
2018-05-17T14:32:56.160Z,2.93
2018-05-17T14:35:25.305Z,2.83
2018-05-17T14:37:54.542Z,3.57
2018-05-17T14:40:24.153Z,3.00
2018-05-17T14:42:57.833Z,3.70
2018-05-17T14:45:27.494Z,3.70
2018-05-17T14:48:00.172Z,4.20
2018-05-17T14:50:29.280Z,3.87
2018-05-17T14:53:02.746Z,3.10
2018-05-17T14:55:31.586Z,3.03
2018-05-17T14:58:07.897Z,3.00
2018-05-17T15:00:36.670Z,3.17
2018-05-17T15:03:10.012Z,2.70
2018-05-17T15:05:38.920Z,3.90
2018-05-17T15:08:12.272Z,2.63
2018-05-17T15:10:41.121Z,3.07
2018-05-17T15:13:14.833Z,2.37
2018-05-17T15:15:43.789Z,3.13
2018-05-17T15:18:19.699Z,2.63
2018-05-17T15:20:49.202Z,2.70
2018-05-17T15:23:19.244Z,3.23
2018-05-17T15:25:48.384Z,3.10
2018-05-17T15:28:25.592Z,2.77
2018-05-17T15:30:54.594Z,4.00
2018-05-17T15:33:26.342Z,4.17
2018-05-17T15:35:56.536Z,2.30
2018-05-17T15:38:26.172Z,3.03
2018-05-17T15:40:54.933Z,2.97
2018-05-17T15:43:31.309Z,3.00
2018-05-17T15:46:01.851Z,2.30
2018-05-17T15:48:30.847Z,2.60
2018-05-17T15:51:00.517Z,2.43
2018-05-17T15:53:32.078Z,3.00
2018-05-17T15:56:01.150Z,3.90
2018-05-17T15:58:37.699Z,3.33
2018-05-17T16:01:06.571Z,3.30
2018-05-17T16:03:39.165Z,3.40
2018-05-17T16:06:08.334Z,3.13
2018-05-17T16:08:41.921Z,3.33
2018-05-17T16:11:11.558Z,3.20
2018-05-17T16:13:42.297Z,3.57
2018-05-17T16:16:11.143Z,4.07
2018-05-17T16:18:45.720Z,3.33
2018-05-17T16:21:14.598Z,3.27
2018-05-17T16:23:52.237Z,3.93
2018-05-17T16:26:22.112Z,3.07
2018-05-17T16:28:51.583Z,5.03
2018-05-17T16:31:20.800Z,3.30
2018-05-17T16:33:58.338Z,3.30
2018-05-17T16:36:27.234Z,4.03
2018-05-17T16:38:59.987Z,3.10
2018-05-17T16:41:28.948Z,4.27
2018-05-17T16:44:00.732Z,3.20
2018-05-17T16:46:29.595Z,4.00
2018-05-17T16:49:06.437Z,3.03
2018-05-17T16:51:36.312Z,3.47
2018-05-17T16:54:06.156Z,2.70
2018-05-17T16:56:35.083Z,3.07
2018-05-17T16:59:11.373Z,3.97
2018-05-17T17:01:40.249Z,3.63
2018-05-17T17:04:12.971Z,3.97
2018-05-17T17:06:42.175Z,3.30
2018-05-17T17:09:18.504Z,3.40
2018-05-17T17:11:47.405Z,3.43
2018-05-17T17:14:17.115Z,3.73
2018-05-17T17:16:45.924Z,3.23
2018-05-17T17:19:19.149Z,3.10
2018-05-17T17:21:48.014Z,3.60
2018-05-17T17:24:24.957Z,3.73
2018-05-17T17:26:54.334Z,3.60
2018-05-17T17:29:24.359Z,3.73
2018-05-17T17:31:53.229Z,3.63
2018-05-17T17:34:30.305Z,3.03
2018-05-17T17:36:59.133Z,3.33
2018-05-17T17:39:29.450Z,3.83
2018-05-17T17:41:58.594Z,4.00
2018-05-17T17:44:30.350Z,3.50
2018-05-17T17:46:59.965Z,3.93
2018-05-17T17:49:36.746Z,3.50
2018-05-17T17:52:05.569Z,3.57
2018-05-17T17:54:38.125Z,4.47
2018-05-17T17:57:07.270Z,3.43
2018-05-17T17:59:39.210Z,3.97
2018-05-17T18:02:08.015Z,4.40
2018-05-17T18:04:40.742Z,3.80
2018-05-17T18:07:10.353Z,4.03
2018-05-17T18:09:42.779Z,3.40
2018-05-17T18:12:12.099Z,3.30
2018-05-17T18:14:45.406Z,4.27
2018-05-17T18:17:15.110Z,4.47
2018-05-17T18:19:51.547Z,3.23
2018-05-17T18:22:20.432Z,3.00
2018-05-17T18:24:56.721Z,2.57
2018-05-17T18:27:25.781Z,3.23
2018-05-17T18:29:54.720Z,3.00
2018-05-17T18:32:23.854Z,3.80
2018-05-17T18:35:00.305Z,3.40
2018-05-17T18:37:29.153Z,3.80
2018-05-17T18:40:00.575Z,3.70
2018-05-17T18:42:29.933Z,2.80
2018-05-17T18:45:05.996Z,3.30
2018-05-17T18:47:35.309Z,2.43
2018-05-17T18:50:07.355Z,3.23
2018-05-17T18:52:36.224Z,3.00
2018-05-17T18:55:09.785Z,2.70
2018-05-17T18:57:38.698Z,3.40
2018-05-17T19:00:16.381Z,3.30
2018-05-17T19:02:45.292Z,3.00
2018-05-17T19:05:15.125Z,2.97
2018-05-17T19:07:45.417Z,3.10
2018-05-17T19:10:16.943Z,2.80
2018-05-17T19:12:45.777Z,3.10
2018-05-17T19:15:22.545Z,2.80
2018-05-17T19:17:52.202Z,3.23
2018-05-17T19:20:22.752Z,2.60
2018-05-17T19:22:51.957Z,3.13
2018-05-17T19:25:28.436Z,3.33
2018-05-17T19:27:58.142Z,3.13
2018-05-17T19:30:28.077Z,3.10
2018-05-17T19:32:57.669Z,3.23
2018-05-17T19:35:34.564Z,3.13
2018-05-17T19:38:03.453Z,2.90
2018-05-17T19:40:32.624Z,2.73
2018-05-17T19:43:02.881Z,3.13
2018-05-17T19:45:34.869Z,4.77
2018-05-17T19:48:03.880Z,2.93
2018-05-17T19:50:36.576Z,3.40
2018-05-17T19:53:05.542Z,3.40
2018-05-17T19:55:42.056Z,2.90
2018-05-17T19:58:11.340Z,3.07
2018-05-17T20:00:41.076Z,3.37
2018-05-17T20:03:09.989Z,3.70
2018-05-17T20:05:44.221Z,3.87
2018-05-17T20:08:13.125Z,2.53
2018-05-17T20:10:49.025Z,3.60
2018-05-17T20:13:18.124Z,4.23
2018-05-17T20:15:48.658Z,2.90
2018-05-17T20:18:17.560Z,3.00
2018-05-17T20:20:52.178Z,3.03
2018-05-17T20:23:21.017Z,3.97
2018-05-17T20:25:56.954Z,3.23
2018-05-17T20:28:26.111Z,2.70
2018-05-17T20:30:58.503Z,3.60
2018-05-17T20:33:27.453Z,3.70
2018-05-17T20:36:00.588Z,3.97
2018-05-17T20:38:29.392Z,3.57
2018-05-17T20:41:01.703Z,3.33
2018-05-17T20:43:31.049Z,3.80
2018-05-17T20:46:07.099Z,2.53
2018-05-17T20:48:36.257Z,3.90
2018-05-17T20:51:06.648Z,2.70
2018-05-17T20:53:35.552Z,3.30
2018-05-17T20:56:12.891Z,2.50
2018-05-17T20:58:41.890Z,2.93
2018-05-17T21:01:14.519Z,2.67
2018-05-17T21:03:44.163Z,2.60
2018-05-17T21:06:16.081Z,3.12
2018-05-17T21:08:45.115Z,3.20
2018-05-17T21:11:21.171Z,3.70
2018-05-17T21:13:50.447Z,2.93
2018-05-17T21:16:20.511Z,2.50
2018-05-17T21:18:50.205Z,2.73
2018-05-17T21:21:23.506Z,3.43
2018-05-17T21:23:52.411Z,2.50
2018-05-17T21:26:24.470Z,3.27
2018-05-17T21:28:53.663Z,2.80
2018-05-17T21:31:33.013Z,3.00
2018-05-17T21:34:03.638Z,3.53
2018-05-17T21:36:32.546Z,3.23
2018-05-17T21:39:01.646Z,3.50
2018-05-17T21:41:31.319Z,3.40
2018-05-17T21:44:00.312Z,3.30
2018-05-17T21:46:36.780Z,2.87
2018-05-17T21:49:06.064Z,4.50
2018-05-17T21:51:35.905Z,3.17
2018-05-17T21:54:06.043Z,2.87
2018-05-17T21:56:38.090Z,3.10
2018-05-17T21:59:07.048Z,3.73
2018-05-17T22:01:40.944Z,3.07
2018-05-17T22:04:12.147Z,2.60
2018-05-17T22:06:44.680Z,2.87
2018-05-17T22:09:17.790Z,3.50
2018-05-17T22:11:47.173Z,3.10
2018-05-17T22:14:17.098Z,2.43
2018-05-17T22:16:48.631Z,3.07
2018-05-17T22:19:18.946Z,2.50
2018-05-17T22:21:53.395Z,3.10
2018-05-17T22:24:29.240Z,2.27
2018-05-17T22:26:58.720Z,4.20
2018-05-17T22:29:27.856Z,3.53
2018-05-17T22:31:56.931Z,2.87
2018-05-17T22:34:27.235Z,2.93
2018-05-17T22:36:59.987Z,4.07
2018-05-17T22:39:29.562Z,3.87
2018-05-17T22:42:01.527Z,4.37
2018-05-17T22:44:30.371Z,4.87
2018-05-17T22:47:03.593Z,4.70
2018-05-17T22:49:32.621Z,4.80
2018-05-17T22:52:10.328Z,5.33
2018-05-17T22:54:39.927Z,5.27
2018-05-17T22:57:13.366Z,4.97
2018-05-17T22:59:42.294Z,4.30
2018-05-17T23:02:14.463Z,3.67
2018-05-17T23:04:43.890Z,3.77
2018-05-17T23:07:17.408Z,3.17
2018-05-17T23:09:46.283Z,2.90
2018-05-17T23:12:20.320Z,3.37
2018-05-17T23:14:49.248Z,3.00
2018-05-17T23:17:20.645Z,2.90
2018-05-17T23:19:50.276Z,3.60
2018-05-17T23:22:31.097Z,3.43
2018-05-17T23:25:00.666Z,2.90
2018-05-17T23:27:29.857Z,3.63
2018-05-17T23:29:58.688Z,2.90
2018-05-17T23:32:28.297Z,3.20
2018-05-17T23:34:58.122Z,3.10
2018-05-17T23:37:29.038Z,3.53
2018-05-17T23:40:06.013Z,2.73
2018-05-17T23:42:35.046Z,2.97
2018-05-17T23:45:04.365Z,2.93
2018-05-17T23:47:33.493Z,2.33
2018-05-17T23:50:02.255Z,3.93
2018-05-17T23:52:38.353Z,3.10
2018-05-17T23:55:07.161Z,2.67
2018-05-17T23:57:37.143Z,2.67
